createdAt,value
2023-01-17T00:02:10.387Z,8.00
2023-01-17T00:04:56.315Z,8.80
2023-01-17T00:07:44.112Z,10.43
2023-01-17T00:10:14.436Z,7.80
2023-01-17T00:12:47.930Z,9.07
2023-01-17T00:15:19.696Z,10.68
2023-01-17T00:17:48.460Z,8.95
2023-01-17T00:20:35.400Z,8.85
2023-01-17T00:23:26.113Z,9.65
2023-01-17T00:26:06.710Z,9.27
2023-01-17T00:28:36.016Z,9.38
2023-01-17T00:31:04.593Z,8.55
2023-01-17T00:33:32.065Z,11.38
2023-01-17T00:36:00.037Z,9.05
2023-01-17T00:38:29.736Z,9.82
2023-01-17T00:41:01.993Z,9.95
2023-01-17T00:43:48.357Z,9.00
2023-01-17T00:46:34.394Z,7.68
2023-01-17T00:49:21.154Z,7.05
2023-01-17T00:52:07.407Z,8.70
2023-01-17T00:54:55.122Z,9.30
2023-01-17T00:57:41.238Z,9.10
2023-01-17T01:00:28.924Z,8.13
2023-01-17T01:03:14.641Z,9.38
2023-01-17T01:06:00.687Z,8.98
2023-01-17T01:08:47.427Z,7.35
2023-01-17T01:11:36.471Z,8.35
2023-01-17T01:14:22.523Z,7.70
2023-01-17T01:17:09.462Z,6.25
2023-01-17T01:19:55.238Z,7.97
2023-01-17T01:22:41.551Z,7.00
2023-01-17T01:25:28.201Z,8.02
2023-01-17T01:28:23.884Z,6.50
2023-01-17T01:31:09.733Z,9.80
2023-01-17T01:33:38.409Z,8.63
2023-01-17T01:36:08.709Z,7.60
2023-01-17T01:38:37.344Z,7.50
2023-01-17T01:41:06.505Z,8.90
2023-01-17T01:43:45.943Z,7.40
2023-01-17T01:46:16.496Z,8.65
2023-01-17T01:48:48.852Z,6.80
2023-01-17T01:51:20.614Z,7.25
2023-01-17T01:53:51.903Z,8.30
2023-01-17T01:56:23.477Z,6.68
2023-01-17T01:58:53.888Z,8.13
2023-01-17T02:01:22.707Z,9.02
2023-01-17T02:03:51.419Z,7.70
2023-01-17T02:06:31.679Z,9.38
2023-01-17T02:09:04.600Z,8.75
2023-01-17T02:11:33.636Z,7.90
2023-01-17T02:14:03.885Z,7.63
2023-01-17T02:16:46.565Z,7.18
2023-01-17T02:20:03.344Z,6.60
2023-01-17T02:23:11.681Z,7.32
2023-01-17T02:26:04.289Z,8.80
2023-01-17T02:28:45.120Z,7.43
2023-01-17T02:31:16.431Z,6.47
2023-01-17T02:33:48.960Z,7.65
2023-01-17T02:36:21.526Z,6.93
2023-01-17T02:38:53.412Z,6.47
2023-01-17T02:41:23.667Z,6.30
2023-01-17T02:43:52.685Z,6.40
2023-01-17T02:46:22.738Z,7.85
2023-01-17T02:48:51.596Z,7.28
2023-01-17T02:51:48.981Z,6.40
2023-01-17T02:54:39.792Z,6.28
2023-01-17T02:57:25.514Z,6.15
2023-01-17T02:59:58.446Z,7.30
2023-01-17T03:02:32.444Z,6.28
2023-01-17T03:05:03.497Z,6.05
2023-01-17T03:07:32.358Z,7.75
2023-01-17T03:10:03.601Z,6.65
2023-01-17T03:12:33.611Z,6.38
2023-01-17T03:15:02.248Z,5.40
2023-01-17T03:17:33.964Z,7.50
2023-01-17T03:20:02.598Z,5.43
2023-01-17T03:22:31.234Z,5.35
2023-01-17T03:24:59.766Z,5.80
2023-01-17T03:27:28.704Z,5.65
2023-01-17T03:29:57.346Z,6.57
2023-01-17T03:32:26.356Z,5.75
2023-01-17T03:34:56.690Z,7.57
2023-01-17T03:37:25.417Z,6.00
2023-01-17T03:39:53.923Z,5.88
2023-01-17T03:42:22.573Z,5.45
2023-01-17T03:44:51.240Z,7.22
2023-01-17T03:47:19.982Z,5.55
2023-01-17T03:49:48.770Z,5.95
2023-01-17T03:52:18.768Z,5.20
2023-01-17T03:54:48.642Z,4.93
2023-01-17T03:57:17.346Z,5.78
2023-01-17T03:59:47.184Z,5.00
2023-01-17T04:02:15.962Z,7.07
2023-01-17T04:04:44.947Z,5.38
2023-01-17T04:07:13.626Z,4.50
2023-01-17T04:09:43.499Z,6.15
2023-01-17T04:12:12.231Z,5.72
2023-01-17T04:14:41.227Z,4.68
2023-01-17T04:17:11.770Z,4.95
2023-01-17T04:19:41.100Z,4.60
2023-01-17T04:22:09.819Z,5.13
2023-01-17T04:24:38.364Z,5.18
2023-01-17T04:27:09.189Z,5.93
2023-01-17T04:29:37.912Z,4.40
2023-01-17T04:32:06.766Z,4.95
2023-01-17T04:34:35.393Z,5.07
2023-01-17T04:37:03.937Z,4.50
2023-01-17T04:39:32.558Z,4.60
2023-01-17T04:42:01.204Z,5.35
2023-01-17T04:44:31.161Z,4.57
2023-01-17T04:47:02.002Z,4.97
2023-01-17T04:49:30.802Z,5.25
2023-01-17T04:51:59.611Z,4.72
2023-01-17T04:54:28.241Z,4.55
2023-01-17T04:56:56.900Z,5.22
2023-01-17T04:59:25.617Z,4.47
2023-01-17T05:01:55.777Z,4.57
2023-01-17T05:04:24.436Z,5.05
2023-01-17T05:06:52.903Z,4.63
2023-01-17T05:09:21.597Z,4.55
2023-01-17T05:11:50.285Z,4.32
2023-01-17T05:14:18.967Z,4.53
2023-01-17T05:16:47.629Z,4.57
2023-01-17T05:19:19.657Z,4.60
2023-01-17T05:21:49.504Z,4.43
2023-01-17T05:24:18.970Z,4.38
2023-01-17T05:26:54.744Z,4.40
2023-01-17T05:29:23.751Z,3.92
2023-01-17T05:31:52.238Z,4.05
2023-01-17T05:34:22.135Z,4.70
2023-01-17T05:36:50.814Z,4.45
2023-01-17T05:39:19.463Z,4.20
2023-01-17T05:41:48.183Z,4.78
2023-01-17T05:44:17.006Z,4.20
2023-01-17T05:46:45.582Z,4.22
2023-01-17T05:49:14.227Z,7.53
2023-01-17T05:51:44.226Z,4.30
2023-01-17T05:54:12.964Z,4.95
2023-01-17T05:56:41.492Z,4.55
2023-01-17T05:59:13.187Z,4.13
2023-01-17T06:01:42.604Z,6.22
2023-01-17T06:04:12.084Z,4.57
2023-01-17T06:06:40.620Z,8.00
2023-01-17T06:09:12.070Z,28.63
2023-01-17T06:11:40.774Z,17.17
2023-01-17T06:14:10.089Z,33.10
2023-01-17T06:16:38.735Z,34.00
2023-01-17T06:19:07.314Z,23.70
2023-01-17T06:21:35.943Z,19.40
2023-01-17T06:24:04.707Z,19.55
2023-01-17T06:26:35.210Z,27.60
2023-01-17T06:29:03.803Z,18.88
2023-01-17T06:31:32.535Z,20.08
2023-01-17T06:34:04.237Z,21.98
2023-01-17T06:36:33.734Z,22.88
2023-01-17T06:39:02.337Z,22.85
2023-01-17T06:41:30.983Z,40.92
2023-01-17T06:44:01.000Z,29.05
2023-01-17T06:46:29.898Z,22.80
2023-01-17T06:48:58.585Z,19.83
2023-01-17T06:51:27.987Z,21.00
2023-01-17T06:53:56.592Z,26.58
2023-01-17T06:56:25.342Z,49.50
2023-01-17T06:58:53.969Z,35.72
2023-01-17T07:01:24.237Z,36.45
2023-01-17T07:03:53.093Z,33.97
2023-01-17T07:06:21.725Z,40.22
2023-01-17T07:08:50.705Z,28.45
2023-01-17T07:11:19.258Z,23.95
2023-01-17T07:13:47.933Z,34.47
2023-01-17T07:16:16.740Z,26.38
2023-01-17T07:18:46.778Z,30.58
2023-01-17T07:21:15.514Z,31.15
2023-01-17T07:23:44.151Z,29.75
2023-01-17T07:26:12.743Z,29.17
2023-01-17T07:28:41.553Z,36.08
2023-01-17T07:31:10.441Z,27.13
2023-01-17T07:33:39.033Z,32.45
2023-01-17T07:36:09.942Z,28.05
2023-01-17T07:38:38.873Z,32.55
2023-01-17T07:41:08.106Z,28.98
2023-01-17T07:43:37.870Z,30.58
2023-01-17T07:46:07.850Z,31.95
2023-01-17T07:48:36.786Z,27.10
2023-01-17T07:51:05.642Z,24.67
2023-01-17T07:53:35.765Z,23.55
2023-01-17T07:56:04.777Z,24.58
2023-01-17T07:58:33.455Z,25.35
2023-01-17T08:01:06.374Z,26.27
2023-01-17T08:03:39.796Z,20.08
2023-01-17T08:06:13.221Z,25.30
2023-01-17T08:08:43.163Z,26.50
2023-01-17T08:11:11.832Z,26.60
2023-01-17T08:13:41.858Z,24.92
2023-01-17T08:16:11.541Z,24.88
2023-01-17T08:18:40.240Z,29.25
2023-01-17T08:21:14.439Z,22.95
2023-01-17T08:23:44.721Z,25.25
2023-01-17T08:26:21.275Z,22.65
2023-01-17T08:28:51.068Z,22.25
2023-01-17T08:31:20.104Z,25.08
2023-01-17T08:33:48.680Z,24.08
2023-01-17T08:36:17.436Z,21.20
2023-01-17T08:38:47.372Z,23.88
2023-01-17T08:41:15.928Z,24.45
2023-01-17T08:43:47.835Z,20.45
2023-01-17T08:46:16.437Z,23.45
2023-01-17T08:48:45.051Z,23.90
2023-01-17T08:51:13.926Z,18.20
2023-01-17T08:53:42.531Z,20.17
2023-01-17T08:56:13.253Z,24.15
2023-01-17T08:58:41.921Z,25.48
2023-01-17T09:01:10.595Z,18.85
2023-01-17T09:03:40.915Z,26.27
2023-01-17T09:06:11.054Z,22.40
2023-01-17T09:08:39.684Z,28.77
2023-01-17T09:11:09.170Z,24.27
2023-01-17T09:13:39.496Z,25.67
2023-01-17T09:16:08.624Z,22.58
2023-01-17T09:18:37.427Z,23.35
2023-01-17T09:21:13.197Z,24.92
2023-01-17T09:23:41.869Z,28.63
2023-01-17T09:26:18.392Z,28.77
2023-01-17T09:28:48.368Z,29.08
2023-01-17T09:31:17.731Z,26.30
2023-01-17T09:33:46.468Z,28.25
2023-01-17T09:36:15.086Z,25.85
2023-01-17T09:38:43.979Z,32.88
2023-01-17T09:41:24.365Z,32.97
2023-01-17T09:43:57.780Z,36.97
2023-01-17T09:46:29.222Z,36.03
2023-01-17T09:49:03.224Z,30.95
2023-01-17T09:51:31.929Z,30.17
2023-01-17T09:54:02.501Z,34.22
2023-01-17T09:56:33.155Z,32.88
2023-01-17T09:59:32.647Z,38.80
2023-01-17T10:02:12.353Z,52.30
2023-01-17T10:05:04.731Z,39.00
2023-01-17T10:07:40.881Z,29.55
2023-01-17T10:10:23.283Z,27.30
2023-01-17T10:12:56.580Z,33.08
2023-01-17T10:15:48.577Z,34.80
2023-01-17T10:18:33.556Z,28.17
2023-01-17T10:21:05.868Z,30.38
2023-01-17T10:24:00.563Z,34.60
2023-01-17T10:26:29.289Z,26.67
2023-01-17T10:29:01.707Z,37.15
2023-01-17T10:31:35.071Z,33.25
2023-01-17T10:34:06.406Z,31.02
2023-01-17T10:36:39.069Z,34.97
2023-01-17T10:39:16.017Z,35.75
2023-01-17T10:41:46.558Z,37.53
2023-01-17T10:44:19.894Z,37.95
2023-01-17T10:46:53.988Z,37.67
2023-01-17T10:49:24.445Z,39.53
2023-01-17T10:52:11.979Z,36.83
2023-01-17T10:55:06.744Z,44.45
2023-01-17T10:57:40.419Z,39.97
2023-01-17T11:00:30.307Z,42.13
2023-01-17T11:03:00.604Z,41.65
2023-01-17T11:05:30.716Z,59.83
2023-01-17T11:08:00.963Z,55.88
2023-01-17T11:10:41.631Z,47.80
2023-01-17T11:13:26.859Z,71.32
2023-01-17T11:15:57.922Z,46.65
2023-01-17T11:18:30.182Z,44.13
2023-01-17T11:21:17.648Z,40.80
2023-01-17T11:23:46.810Z,43.72
2023-01-17T11:26:24.762Z,47.97
2023-01-17T11:28:53.391Z,55.03
2023-01-17T11:31:27.276Z,41.70
2023-01-17T11:34:18.541Z,43.20
2023-01-17T11:36:47.301Z,52.15
2023-01-17T11:39:29.046Z,40.88
2023-01-17T11:41:57.690Z,39.47
2023-01-17T11:44:28.901Z,41.10
2023-01-17T11:47:11.336Z,39.10
2023-01-17T11:49:41.746Z,34.63
2023-01-17T11:52:10.760Z,36.13
2023-01-17T11:54:40.552Z,32.40
2023-01-17T11:57:22.227Z,34.97
2023-01-17T11:59:52.627Z,29.10
2023-01-17T12:02:55.103Z,33.80
2023-01-17T12:05:55.346Z,32.88
2023-01-17T12:08:34.140Z,30.13
2023-01-17T12:11:07.995Z,29.17
2023-01-17T12:14:01.840Z,33.00
2023-01-17T12:17:00.847Z,31.05
2023-01-17T12:19:43.688Z,40.97
2023-01-17T12:22:29.838Z,51.05
2023-01-17T12:25:15.037Z,44.88
2023-01-17T12:27:48.843Z,34.47
2023-01-17T12:30:30.959Z,30.95
2023-01-17T12:33:21.903Z,28.95
2023-01-17T12:35:52.971Z,31.70
2023-01-17T12:38:32.559Z,29.08
2023-01-17T12:41:05.980Z,25.73
2023-01-17T12:43:37.336Z,30.08
2023-01-17T12:46:09.015Z,26.17
2023-01-17T12:48:39.473Z,26.08
2023-01-17T12:51:10.608Z,23.77
2023-01-17T12:53:43.664Z,23.13
2023-01-17T12:56:15.834Z,27.20
2023-01-17T12:58:48.225Z,25.08
2023-01-17T13:01:23.307Z,20.95
2023-01-17T13:04:00.608Z,23.77
2023-01-17T13:06:43.028Z,23.33
2023-01-17T13:09:13.682Z,23.45
2023-01-17T13:11:46.656Z,23.45
2023-01-17T13:14:15.372Z,24.25
2023-01-17T13:16:46.435Z,20.20
2023-01-17T13:19:19.665Z,17.70
2023-01-17T13:21:49.040Z,18.50
2023-01-17T13:24:39.494Z,20.00
2023-01-17T13:27:36.341Z,19.38
2023-01-17T13:30:35.988Z,22.20
2023-01-17T13:33:25.430Z,20.05
2023-01-17T13:36:02.959Z,18.25
2023-01-17T13:38:56.017Z,20.48
2023-01-17T13:41:54.844Z,19.35
2023-01-17T13:44:24.637Z,17.35
2023-01-17T13:47:02.198Z,15.80
2023-01-17T13:49:37.225Z,18.02
2023-01-17T13:52:12.319Z,19.83
2023-01-17T13:54:48.744Z,16.85
2023-01-17T13:57:44.019Z,17.13
2023-01-17T14:00:54.859Z,16.23
2023-01-17T14:04:03.978Z,13.70
2023-01-17T14:06:40.122Z,16.25
2023-01-17T14:09:16.690Z,17.55
2023-01-17T14:11:56.452Z,18.35
2023-01-17T14:14:50.046Z,12.63
2023-01-17T14:17:59.229Z,15.43
2023-01-17T14:20:50.621Z,16.25
2023-01-17T14:23:59.936Z,13.90
2023-01-17T14:26:36.622Z,16.63
2023-01-17T14:29:55.952Z,14.65
2023-01-17T14:32:25.869Z,10.30
2023-01-17T14:34:55.021Z,15.90
2023-01-17T14:37:43.105Z,12.13
2023-01-17T14:40:18.617Z,10.30
2023-01-17T14:42:48.044Z,15.70
2023-01-17T14:45:29.471Z,15.07
2023-01-17T14:47:59.013Z,16.13
2023-01-17T14:50:29.390Z,12.85
2023-01-17T14:53:20.272Z,12.60
2023-01-17T14:55:55.203Z,11.82
2023-01-17T14:58:25.858Z,15.73
2023-01-17T15:01:01.745Z,10.80
2023-01-17T15:03:31.396Z,14.00
2023-01-17T15:06:05.014Z,13.18
2023-01-17T15:08:36.493Z,10.40
2023-01-17T15:11:07.485Z,9.35
2023-01-17T15:13:44.191Z,13.15
2023-01-17T15:16:22.747Z,12.38
2023-01-17T15:18:51.583Z,11.80
2023-01-17T15:21:21.180Z,11.95
2023-01-17T15:23:51.731Z,13.43
2023-01-17T15:26:22.563Z,12.40
2023-01-17T15:28:51.586Z,11.82
2023-01-17T15:31:24.704Z,14.38
2023-01-17T15:33:59.243Z,13.30
2023-01-17T15:36:30.398Z,10.98
2023-01-17T15:39:00.742Z,12.52
2023-01-17T15:41:32.017Z,10.85
2023-01-17T15:44:01.039Z,10.95
2023-01-17T15:46:33.883Z,12.00
2023-01-17T15:49:17.655Z,12.23
2023-01-17T15:51:52.819Z,13.55
2023-01-17T15:54:44.831Z,18.83
2023-01-17T15:57:27.062Z,12.02
2023-01-17T15:59:59.576Z,11.82
2023-01-17T16:02:43.125Z,13.70
2023-01-17T16:05:34.518Z,12.95
2023-01-17T16:08:38.631Z,21.00
2023-01-17T16:11:07.952Z,11.55
2023-01-17T16:13:38.710Z,13.70
2023-01-17T16:16:22.394Z,17.00
2023-01-17T16:18:59.080Z,12.98
2023-01-17T16:21:28.750Z,13.75
2023-01-17T16:23:57.564Z,10.10
2023-01-17T16:26:26.215Z,9.20
2023-01-17T16:28:55.028Z,18.05
2023-01-17T16:31:23.723Z,9.82
2023-01-17T16:33:53.864Z,14.05
2023-01-17T16:36:23.085Z,11.82
2023-01-17T16:38:53.276Z,11.45
2023-01-17T16:41:21.971Z,10.77
2023-01-17T16:44:02.011Z,10.65
2023-01-17T16:46:30.995Z,12.43
2023-01-17T16:49:02.361Z,10.88
2023-01-17T16:51:30.987Z,10.35
2023-01-17T16:53:59.745Z,11.45
2023-01-17T16:56:28.296Z,11.30
2023-01-17T16:58:56.896Z,11.02
2023-01-17T17:01:25.701Z,9.90
2023-01-17T17:03:54.316Z,9.95
2023-01-17T17:06:24.345Z,9.93
2023-01-17T17:08:52.891Z,12.45
2023-01-17T17:11:23.161Z,11.35
2023-01-17T17:13:52.160Z,9.73
2023-01-17T17:16:22.456Z,9.52
2023-01-17T17:18:56.461Z,8.90
2023-01-17T17:21:26.825Z,11.73
2023-01-17T17:23:58.278Z,12.30
2023-01-17T17:26:28.994Z,10.13
2023-01-17T17:28:58.000Z,10.75
2023-01-17T17:31:26.572Z,8.88
2023-01-17T17:33:59.039Z,10.52
2023-01-17T17:36:29.241Z,12.63
2023-01-17T17:38:58.056Z,8.55
2023-01-17T17:41:27.834Z,11.82
2023-01-17T17:43:56.674Z,8.93
2023-01-17T17:46:26.821Z,8.40
2023-01-17T17:48:55.798Z,13.00
2023-01-17T17:51:26.204Z,8.90
2023-01-17T17:53:56.733Z,10.52
2023-01-17T17:56:25.489Z,9.73
2023-01-17T17:58:54.034Z,10.70
2023-01-17T18:01:24.327Z,12.23
2023-01-17T18:03:53.372Z,10.73
2023-01-17T18:06:22.165Z,10.38
2023-01-17T18:08:52.216Z,10.88
2023-01-17T18:11:24.276Z,11.75
2023-01-17T18:13:53.408Z,12.20
2023-01-17T18:16:27.067Z,11.45
2023-01-17T18:18:56.753Z,10.80
2023-01-17T18:21:26.567Z,11.00
2023-01-17T18:23:56.841Z,10.60
2023-01-17T18:26:28.191Z,11.55
2023-01-17T18:28:58.010Z,12.20
2023-01-17T18:31:27.204Z,11.38
2023-01-17T18:33:56.163Z,11.32
2023-01-17T18:36:25.161Z,11.00
2023-01-17T18:38:54.014Z,11.85
2023-01-17T18:41:24.048Z,13.40
2023-01-17T18:43:56.130Z,9.38
2023-01-17T18:46:25.969Z,11.50
2023-01-17T18:48:56.779Z,13.35
2023-01-17T18:51:25.898Z,12.50
2023-01-17T18:53:54.949Z,12.80
2023-01-17T18:56:23.814Z,12.23
2023-01-17T18:58:55.299Z,12.55
2023-01-17T19:01:25.111Z,12.82
2023-01-17T19:03:56.060Z,16.73
2023-01-17T19:06:26.301Z,13.45
2023-01-17T19:08:54.932Z,15.07
2023-01-17T19:11:24.480Z,12.13
2023-01-17T19:13:54.504Z,18.92
2023-01-17T19:16:25.684Z,13.00
2023-01-17T19:18:54.579Z,14.70
2023-01-17T19:21:24.512Z,14.82
2023-01-17T19:23:53.469Z,16.33
2023-01-17T19:26:23.958Z,13.00
2023-01-17T19:28:54.408Z,13.05
2023-01-17T19:31:24.072Z,13.75
2023-01-17T19:33:54.122Z,16.38
2023-01-17T19:36:24.258Z,14.27
2023-01-17T19:39:03.901Z,17.23
2023-01-17T19:41:34.129Z,14.80
2023-01-17T19:44:06.094Z,14.95
2023-01-17T19:46:35.140Z,15.65
2023-01-17T19:49:04.414Z,18.80
2023-01-17T19:51:33.083Z,14.98
2023-01-17T19:54:04.231Z,17.67
2023-01-17T19:56:33.242Z,17.25
2023-01-17T19:59:03.181Z,19.05
2023-01-17T20:01:33.601Z,16.15
2023-01-17T20:04:02.874Z,16.92
2023-01-17T20:06:32.576Z,15.50
2023-01-17T20:09:01.226Z,16.48
2023-01-17T20:11:30.147Z,17.13
2023-01-17T20:14:00.131Z,16.33
2023-01-17T20:16:31.524Z,17.77
2023-01-17T20:19:02.938Z,17.73
2023-01-17T20:21:32.151Z,15.32
2023-01-17T20:24:03.458Z,16.73
2023-01-17T20:26:35.737Z,17.40
2023-01-17T20:29:06.941Z,19.63
2023-01-17T20:31:38.712Z,18.90
2023-01-17T20:34:08.182Z,20.05
2023-01-17T20:36:37.058Z,18.13
2023-01-17T20:39:06.599Z,18.10
2023-01-17T20:41:36.588Z,18.63
2023-01-17T20:44:07.286Z,20.15
2023-01-17T20:46:41.139Z,19.52
2023-01-17T20:49:15.064Z,20.15
2023-01-17T20:51:44.589Z,17.27
2023-01-17T20:54:15.179Z,18.45
2023-01-17T20:56:43.840Z,18.77
2023-01-17T20:59:14.669Z,19.52
2023-01-17T21:01:45.055Z,20.02
2023-01-17T21:04:14.842Z,20.08
2023-01-17T21:06:44.059Z,18.42
2023-01-17T21:09:14.255Z,17.08
2023-01-17T21:11:42.917Z,20.08
2023-01-17T21:14:11.507Z,20.58
2023-01-17T21:16:40.309Z,18.02
2023-01-17T21:19:12.209Z,18.88
2023-01-17T21:21:41.019Z,17.02
2023-01-17T21:24:09.889Z,17.23
2023-01-17T21:26:39.995Z,16.67
2023-01-17T21:29:09.656Z,19.77
2023-01-17T21:31:40.345Z,19.73
2023-01-17T21:34:11.394Z,21.38
2023-01-17T21:36:41.388Z,19.58
2023-01-17T21:39:12.565Z,19.23
2023-01-17T21:41:42.104Z,17.23
2023-01-17T21:44:14.730Z,18.15
2023-01-17T21:46:43.442Z,20.10
2023-01-17T21:49:13.553Z,17.23
2023-01-17T21:51:59.795Z,17.65
2023-01-17T21:54:46.789Z,17.55
2023-01-17T21:57:34.324Z,19.83
2023-01-17T22:00:03.147Z,19.08
2023-01-17T22:02:31.719Z,18.70
2023-01-17T22:05:01.854Z,20.17
2023-01-17T22:07:30.779Z,20.40
2023-01-17T22:09:59.400Z,18.10
2023-01-17T22:12:28.047Z,19.23
2023-01-17T22:14:56.837Z,18.73
2023-01-17T22:17:25.487Z,20.77
2023-01-17T22:19:54.025Z,19.98
2023-01-17T22:22:24.449Z,20.88
2023-01-17T22:24:53.067Z,19.02
2023-01-17T22:27:21.664Z,20.63
2023-01-17T22:29:50.466Z,18.55
2023-01-17T22:32:19.134Z,17.83
2023-01-17T22:34:47.724Z,21.33
2023-01-17T22:37:16.517Z,19.23
2023-01-17T22:39:46.560Z,18.30
2023-01-17T22:42:16.728Z,19.67
2023-01-17T22:44:45.839Z,19.20
2023-01-17T22:47:14.656Z,21.83
2023-01-17T22:49:43.471Z,18.75
2023-01-17T22:52:12.680Z,17.85
2023-01-17T22:54:41.375Z,19.77
2023-01-17T22:57:11.731Z,20.33
2023-01-17T22:59:40.315Z,19.38
2023-01-17T23:02:09.123Z,18.92
2023-01-17T23:04:40.053Z,21.45
2023-01-17T23:07:08.685Z,19.85
2023-01-17T23:09:37.347Z,19.30
2023-01-17T23:12:06.404Z,20.90
2023-01-17T23:14:50.865Z,20.70
2023-01-17T23:17:48.788Z,20.55
2023-01-17T23:20:17.850Z,21.58
2023-01-17T23:22:46.723Z,19.50
2023-01-17T23:25:15.836Z,20.13
2023-01-17T23:28:02.894Z,21.25
2023-01-17T23:30:34.834Z,19.00
2023-01-17T23:33:05.069Z,21.48
2023-01-17T23:35:34.986Z,18.63
2023-01-17T23:38:21.439Z,19.73
2023-01-17T23:41:03.937Z,21.67
2023-01-17T23:43:32.749Z,22.67
2023-01-17T23:46:02.769Z,21.25
2023-01-17T23:48:31.691Z,22.15
2023-01-17T23:51:01.333Z,18.65
2023-01-17T23:53:29.909Z,19.77
2023-01-17T23:56:00.321Z,20.48
2023-01-17T23:58:29.951Z,21.17
